sensor_id;sensor_type;location;lat;lon;timestamp;pressure;altitude;pressure_sealevel;temperature;humidity
72570;BME280;60594;50.204;8.844;2023-12-04T00:00:06;100267.41;;;-1.28;88.55
72570;BME280;60594;50.204;8.844;2023-12-04T00:02:58;100264.97;;;-1.32;88.58
72570;BME280;60594;50.204;8.844;2023-12-04T00:05:25;100230.22;;;-1.36;87.83
72570;BME280;60594;50.204;8.844;2023-12-04T00:07:51;100240.44;;;-1.28;88.23
72570;BME280;60594;50.204;8.844;2023-12-04T00:10:18;100220.69;;;-1.37;88.01
72570;BME280;60594;50.204;8.844;2023-12-04T00:12:44;100224.91;;;-1.33;88.18
72570;BME280;60594;50.204;8.844;2023-12-04T00:15:10;100229.13;;;-1.29;86.74
72570;BME280;60594;50.204;8.844;2023-12-04T00:17:37;100230.13;;;-1.33;87.39
72570;BME280;60594;50.204;8.844;2023-12-04T00:20:07;100220.59;;;-1.34;86.90
72570;BME280;60594;50.204;8.844;2023-12-04T00:22:35;100216.19;;;-1.33;87.58
72570;BME280;60594;50.204;8.844;2023-12-04T00:25:03;100214.50;;;-1.34;87.39
72570;BME280;60594;50.204;8.844;2023-12-04T00:27:30;100211.94;;;-1.36;87.23
72570;BME280;60594;50.204;8.844;2023-12-04T00:29:56;100201.63;;;-1.40;87.58
72570;BME280;60594;50.204;8.844;2023-12-04T00:32:23;100209.28;;;-1.34;86.84
72570;BME280;60594;50.204;8.844;2023-12-04T00:34:50;100204.22;;;-1.40;86.98
72570;BME280;60594;50.204;8.844;2023-12-04T00:37:17;100207.66;;;-1.38;87.63
72570;BME280;60594;50.204;8.844;2023-12-04T00:39:43;100197.13;;;-1.35;87.71
72570;BME280;60594;50.204;8.844;2023-12-04T00:42:09;100201.44;;;-1.34;87.55
72570;BME280;60594;50.204;8.844;2023-12-04T00:44:36;100199.69;;;-1.34;87.64
72570;BME280;60594;50.204;8.844;2023-12-04T00:47:02;100188.38;;;-1.34;87.40
72570;BME280;60594;50.204;8.844;2023-12-04T00:49:29;100190.22;;;-1.38;87.88
72570;BME280;60594;50.204;8.844;2023-12-04T00:51:56;100190.22;;;-1.38;87.18
72570;BME280;60594;50.204;8.844;2023-12-04T00:54:22;100190.31;;;-1.41;87.53
72570;BME280;60594;50.204;8.844;2023-12-04T00:56:49;100194.63;;;-1.40;86.76
72570;BME280;60594;50.204;8.844;2023-12-04T00:59:15;100185.94;;;-1.40;87.60
72570;BME280;60594;50.204;8.844;2023-12-04T01:01:41;100172.19;;;-1.45;86.78
72570;BME280;60594;50.204;8.844;2023-12-04T01:04:08;100175.75;;;-1.48;86.75
72570;BME280;60594;50.204;8.844;2023-12-04T01:06:35;100176.66;;;-1.49;87.29
72570;BME280;60594;50.204;8.844;2023-12-04T01:09:01;100173.22;;;-1.51;87.08
72570;BME280;60594;50.204;8.844;2023-12-04T01:11:28;100178.66;;;-1.57;87.22
72570;BME280;60594;50.204;8.844;2023-12-04T01:13:54;100179.59;;;-1.59;87.54
72570;BME280;60594;50.204;8.844;2023-12-04T01:16:21;100176.28;;;-1.64;87.29
72570;BME280;60594;50.204;8.844;2023-12-04T01:18:47;100168.53;;;-1.67;87.84
72570;BME280;60594;50.204;8.844;2023-12-04T01:21:13;100164.22;;;-1.68;87.95
72570;BME280;60594;50.204;8.844;2023-12-04T01:23:40;100153.00;;;-1.72;87.51
72570;BME280;60594;50.204;8.844;2023-12-04T01:26:07;100155.69;;;-1.73;87.65
72570;BME280;60594;50.204;8.844;2023-12-04T01:28:33;100144.72;;;-1.84;87.30
72570;BME280;60594;50.204;8.844;2023-12-04T01:30:59;100145.50;;;-1.82;87.74
72570;BME280;60594;50.204;8.844;2023-12-04T01:33:26;100153.25;;;-1.79;87.97
72570;BME280;60594;50.204;8.844;2023-12-04T01:35:53;100148.91;;;-1.79;87.71
72570;BME280;60594;50.204;8.844;2023-12-04T01:38:19;100146.38;;;-1.82;87.80
72570;BME280;60594;50.204;8.844;2023-12-04T01:40:45;100142.16;;;-1.86;87.91
72570;BME280;60594;50.204;8.844;2023-12-04T01:43:12;100127.66;;;-1.96;88.54
72570;BME280;60594;50.204;8.844;2023-12-04T01:45:38;100137.25;;;-1.96;89.26
72570;BME280;60594;50.204;8.844;2023-12-04T01:48:06;100138.19;;;-1.99;88.50
72570;BME280;60594;50.204;8.844;2023-12-04T01:50:35;100140.09;;;-2.04;88.38
72570;BME280;60594;50.204;8.844;2023-12-04T01:53:01;100128.09;;;-2.09;88.44
72570;BME280;60594;50.204;8.844;2023-12-04T01:55:29;100134.09;;;-2.07;88.26
72570;BME280;60594;50.204;8.844;2023-12-04T01:57:55;100118.69;;;-2.15;88.29
72570;BME280;60594;50.204;8.844;2023-12-04T02:00:23;100124.72;;;-2.13;88.74
72570;BME280;60594;50.204;8.844;2023-12-04T02:02:50;100114.44;;;-2.17;88.49
72570;BME280;60594;50.204;8.844;2023-12-04T02:05:16;100114.31;;;-2.14;88.39
72570;BME280;60594;50.204;8.844;2023-12-04T02:07:43;100115.34;;;-2.20;88.43
72570;BME280;60594;50.204;8.844;2023-12-04T02:10:10;100105.03;;;-2.23;88.96
72570;BME280;60594;50.204;8.844;2023-12-04T02:12:36;100118.03;;;-2.21;88.44
72570;BME280;60594;50.204;8.844;2023-12-04T02:15:04;100112.13;;;-2.28;89.46
72570;BME280;60594;50.204;8.844;2023-12-04T02:17:32;100124.38;;;-2.30;89.39
72570;BME280;60594;50.204;8.844;2023-12-04T02:19:59;100111.47;;;-2.34;89.30
72570;BME280;60594;50.204;8.844;2023-12-04T02:22:26;100130.38;;;-2.28;88.65
72570;BME280;60594;50.204;8.844;2023-12-04T02:24:52;100131.25;;;-2.27;89.06
72570;BME280;60594;50.204;8.844;2023-12-04T02:27:23;100131.25;;;-2.27;89.52
72570;BME280;60594;50.204;8.844;2023-12-04T02:29:53;100136.38;;;-2.24;88.85
72570;BME280;60594;50.204;8.844;2023-12-04T02:32:23;100139.00;;;-2.24;88.48
72570;BME280;60594;50.204;8.844;2023-12-04T02:34:51;100133.09;;;-2.31;89.29
72570;BME280;60594;50.204;8.844;2023-12-04T02:37:19;100125.25;;;-2.31;88.91
72570;BME280;60594;50.204;8.844;2023-12-04T02:39:47;100126.09;;;-2.29;89.53
72570;BME280;60594;50.204;8.844;2023-12-04T02:42:15;100130.25;;;-2.23;88.24
72570;BME280;60594;50.204;8.844;2023-12-04T02:44:43;100117.25;;;-2.25;88.22
72570;BME280;60594;50.204;8.844;2023-12-04T02:47:09;100109.44;;;-2.25;88.49
72570;BME280;60594;50.204;8.844;2023-12-04T02:49:36;100098.28;;;-2.30;88.55
72570;BME280;60594;50.204;8.844;2023-12-04T02:52:02;100103.50;;;-2.30;87.79
72570;BME280;60594;50.204;8.844;2023-12-04T02:54:29;100088.88;;;-2.35;88.78
72570;BME280;60594;50.204;8.844;2023-12-04T02:56:55;100096.69;;;-2.34;88.47
72570;BME280;60594;50.204;8.844;2023-12-04T02:59:22;100077.59;;;-2.36;88.51
72570;BME280;60594;50.204;8.844;2023-12-04T03:01:48;100081.16;;;-2.38;88.56
72570;BME280;60594;50.204;8.844;2023-12-04T03:04:15;100072.31;;;-2.34;88.00
72570;BME280;60594;50.204;8.844;2023-12-04T03:06:41;100077.53;;;-2.34;87.84
72570;BME280;60594;50.204;8.844;2023-12-04T03:09:08;100070.66;;;-2.37;88.53
72570;BME280;60594;50.204;8.844;2023-12-04T03:11:34;100052.78;;;-2.49;89.28
72570;BME280;60594;50.204;8.844;2023-12-04T03:14:00;100061.03;;;-2.35;88.60
72570;BME280;60594;50.204;8.844;2023-12-04T03:16:27;100057.63;;;-2.37;88.83
72570;BME280;60594;50.204;8.844;2023-12-04T03:18:54;100058.38;;;-2.33;88.66
72570;BME280;60594;50.204;8.844;2023-12-04T03:21:20;100055.03;;;-2.37;88.88
72570;BME280;60594;50.204;8.844;2023-12-04T03:23:47;100056.72;;;-2.36;88.79
72570;BME280;60594;50.204;8.844;2023-12-04T03:26:13;100061.84;;;-2.33;88.60
72570;BME280;60594;50.204;8.844;2023-12-04T03:28:40;100052.97;;;-2.27;88.65
72570;BME280;60594;50.204;8.844;2023-12-04T03:31:06;100059.06;;;-2.27;88.29
72570;BME280;60594;50.204;8.844;2023-12-04T03:33:33;100049.50;;;-2.28;88.15
72570;BME280;60594;50.204;8.844;2023-12-04T03:35:59;100052.16;;;-2.29;87.87
72570;BME280;60594;50.204;8.844;2023-12-04T03:38:26;100048.50;;;-2.24;87.98
72570;BME280;60594;50.204;8.844;2023-12-04T03:40:52;100041.50;;;-2.22;87.78
72570;BME280;60594;50.204;8.844;2023-12-04T03:43:19;100032.03;;;-2.24;88.07
72570;BME280;60594;50.204;8.844;2023-12-04T03:45:45;100031.94;;;-2.21;88.07
72570;BME280;60594;50.204;8.844;2023-12-04T03:48:12;100028.44;;;-2.22;88.87
72570;BME280;60594;50.204;8.844;2023-12-04T03:50:38;100031.94;;;-2.21;88.59
72570;BME280;60594;50.204;8.844;2023-12-04T03:53:05;100020.66;;;-2.23;89.43
72570;BME280;60594;50.204;8.844;2023-12-04T03:55:31;100016.31;;;-2.23;88.51
72570;BME280;60594;50.204;8.844;2023-12-04T03:57:58;100015.25;;;-2.17;87.84
72570;BME280;60594;50.204;8.844;2023-12-04T04:00:25;100012.69;;;-2.19;87.54
72570;BME280;60594;50.204;8.844;2023-12-04T04:02:51;99999.78;;;-2.23;86.85
72570;BME280;60594;50.204;8.844;2023-12-04T04:05:18;99999.69;;;-2.20;87.23
72570;BME280;60594;50.204;8.844;2023-12-04T04:07:44;99996.28;;;-2.22;87.46
72570;BME280;60594;50.204;8.844;2023-12-04T04:10:11;99991.97;;;-2.23;87.46
72570;BME280;60594;50.204;8.844;2023-12-04T04:12:38;99982.28;;;-2.20;86.83
72570;BME280;60594;50.204;8.844;2023-12-04T04:15:05;99964.19;;;-2.24;86.72
72570;BME280;60594;50.204;8.844;2023-12-04T04:17:32;99974.34;;;-2.17;86.71
72570;BME280;60594;50.204;8.844;2023-12-04T04:19:59;99977.13;;;-2.21;87.39
72570;BME280;60594;50.204;8.844;2023-12-04T04:22:26;99986.56;;;-2.17;87.91
72570;BME280;60594;50.204;8.844;2023-12-04T04:24:52;99987.16;;;-2.09;88.05
72570;BME280;60594;50.204;8.844;2023-12-04T04:27:19;99984.50;;;-2.08;87.73
72570;BME280;60594;50.204;8.844;2023-12-04T04:29:45;99970.78;;;-2.14;87.71
72570;BME280;60594;50.204;8.844;2023-12-04T04:32:12;99980.03;;;-2.04;87.21
72570;BME280;60594;50.204;8.844;2023-12-04T04:34:38;99982.59;;;-2.03;86.30
72570;BME280;60594;50.204;8.844;2023-12-04T04:37:04;99987.75;;;-2.01;85.84
72570;BME280;60594;50.204;8.844;2023-12-04T04:39:31;99986.97;;;-2.05;86.11
72570;BME280;60594;50.204;8.844;2023-12-04T04:41:57;99987.94;;;-2.07;87.41
72570;BME280;60594;50.204;8.844;2023-12-04T04:44:24;99977.69;;;-2.12;86.81
72570;BME280;60594;50.204;8.844;2023-12-04T04:46:50;99982.34;;;-2.21;86.85
72570;BME280;60594;50.204;8.844;2023-12-04T04:49:16;99981.25;;;-2.16;86.38
72570;BME280;60594;50.204;8.844;2023-12-04T04:51:43;99980.84;;;-2.02;88.11
72570;BME280;60594;50.204;8.844;2023-12-04T04:54:09;99983.31;;;-1.99;87.13
72570;BME280;60594;50.204;8.844;2023-12-04T04:56:36;99988.19;;;-1.89;85.45
72570;BME280;60594;50.204;8.844;2023-12-04T04:59:02;99993.44;;;-1.89;86.78
72570;BME280;60594;50.204;8.844;2023-12-04T05:01:29;99976.16;;;-1.93;86.70
72570;BME280;60594;50.204;8.844;2023-12-04T05:03:55;99977.94;;;-1.95;87.46
72570;BME280;60594;50.204;8.844;2023-12-04T05:06:22;99984.69;;;-1.88;87.72
72570;BME280;60594;50.204;8.844;2023-12-04T05:08:48;99982.94;;;-1.87;88.11
72570;BME280;60594;50.204;8.844;2023-12-04T05:11:18;99967.31;;;-1.89;86.36
72570;BME280;60594;50.204;8.844;2023-12-04T05:13:45;99962.16;;;-1.90;86.52
72570;BME280;60594;50.204;8.844;2023-12-04T05:16:11;99957.97;;;-1.96;87.30
72570;BME280;60594;50.204;8.844;2023-12-04T05:18:38;99952.91;;;-2.00;87.84
72570;BME280;60594;50.204;8.844;2023-12-04T05:21:09;99958.13;;;-2.00;87.63
72570;BME280;60594;50.204;8.844;2023-12-04T05:23:39;99958.28;;;-2.05;88.19
72570;BME280;60594;50.204;8.844;2023-12-04T05:26:06;99951.34;;;-2.06;89.50
72570;BME280;60594;50.204;8.844;2023-12-04T05:28:33;99956.56;;;-2.06;90.44
72570;BME280;60594;50.204;8.844;2023-12-04T05:31:00;99956.47;;;-2.03;89.81
72570;BME280;60594;50.204;8.844;2023-12-04T05:33:27;99949.56;;;-2.04;89.05
72570;BME280;60594;50.204;8.844;2023-12-04T05:35:53;99941.19;;;-2.13;88.63
72570;BME280;60594;50.204;8.844;2023-12-04T05:38:20;99947.19;;;-2.11;88.71
72570;BME280;60594;50.204;8.844;2023-12-04T05:40:47;99957.72;;;-2.14;88.87
72570;BME280;60594;50.204;8.844;2023-12-04T05:43:14;99953.69;;;-2.23;88.54
72570;BME280;60594;50.204;8.844;2023-12-04T05:45:41;99947.56;;;-2.22;88.40
72570;BME280;60594;50.204;8.844;2023-12-04T05:48:07;99948.72;;;-2.30;89.48
72570;BME280;60594;50.204;8.844;2023-12-04T05:50:34;99948.63;;;-2.27;90.65
72570;BME280;60594;50.204;8.844;2023-12-04T05:53:00;99933.16;;;-2.33;91.79
72570;BME280;60594;50.204;8.844;2023-12-04T05:55:27;99937.53;;;-2.34;90.17
72570;BME280;60594;50.204;8.844;2023-12-04T05:57:53;99933.91;;;-2.30;90.36
72570;BME280;60594;50.204;8.844;2023-12-04T06:00:19;99931.00;;;-2.21;89.90
72570;BME280;60594;50.204;8.844;2023-12-04T06:02:48;99936.22;;;-2.21;89.46
72570;BME280;60594;50.204;8.844;2023-12-04T06:05:14;99921.56;;;-2.25;90.04
72570;BME280;60594;50.204;8.844;2023-12-04T06:07:41;99926.59;;;-2.19;90.38
72570;BME280;60594;50.204;8.844;2023-12-04T06:10:08;99920.50;;;-2.19;89.10
72570;BME280;60594;50.204;8.844;2023-12-04T06:12:34;99922.09;;;-2.15;89.85
72570;BME280;60594;50.204;8.844;2023-12-04T06:15:01;99914.38;;;-2.18;89.02
72570;BME280;60594;50.204;8.844;2023-12-04T06:17:27;99912.56;;;-2.16;91.29
72570;BME280;60594;50.204;8.844;2023-12-04T06:19:54;99912.53;;;-2.15;89.96
72570;BME280;60594;50.204;8.844;2023-12-04T06:22:20;99900.53;;;-2.20;89.94
72570;BME280;60594;50.204;8.844;2023-12-04T06:24:48;99892.75;;;-2.22;89.13
72570;BME280;60594;50.204;8.844;2023-12-04T06:27:16;99899.78;;;-2.24;89.76
72570;BME280;60594;50.204;8.844;2023-12-04T06:29:44;99900.63;;;-2.23;89.55
72570;BME280;60594;50.204;8.844;2023-12-04T06:32:11;99898.19;;;-2.28;89.78
72570;BME280;60594;50.204;8.844;2023-12-04T06:34:38;99886.22;;;-2.35;89.58
72570;BME280;60594;50.204;8.844;2023-12-04T06:37:12;99888.97;;;-2.38;90.66
72570;BME280;60594;50.204;8.844;2023-12-04T06:39:39;99887.25;;;-2.39;90.22
72570;BME280;60594;50.204;8.844;2023-12-04T06:42:07;99881.47;;;-2.48;89.86
72570;BME280;60594;50.204;8.844;2023-12-04T06:44:34;99889.31;;;-2.48;89.85
72570;BME280;60594;50.204;8.844;2023-12-04T06:47:00;99885.41;;;-2.61;90.31
72570;BME280;60594;50.204;8.844;2023-12-04T06:49:30;99905.25;;;-2.57;91.19
72570;BME280;60594;50.204;8.844;2023-12-04T06:51:58;99896.72;;;-2.62;92.26
72570;BME280;60594;50.204;8.844;2023-12-04T06:54:25;99891.44;;;-2.61;91.78
72570;BME280;60594;50.204;8.844;2023-12-04T06:56:51;99888.34;;;-2.72;92.53
72570;BME280;60594;50.204;8.844;2023-12-04T06:59:18;99896.75;;;-2.64;92.17
72570;BME280;60594;50.204;8.844;2023-12-04T07:01:44;99884.72;;;-2.68;93.11
72570;BME280;60594;50.204;8.844;2023-12-04T07:04:11;99902.06;;;-2.65;93.63
72570;BME280;60594;50.204;8.844;2023-12-04T07:06:41;99900.38;;;-2.68;92.23
72570;BME280;60594;50.204;8.844;2023-12-04T07:09:07;99889.72;;;-2.60;92.99
72570;BME280;60594;50.204;8.844;2023-12-04T07:11:35;99887.69;;;-2.52;92.42
72570;BME280;60594;50.204;8.844;2023-12-04T07:14:01;99891.81;;;-2.45;91.90
72570;BME280;60594;50.204;8.844;2023-12-04T07:16:28;99869.25;;;-2.46;91.15
72570;BME280;60594;50.204;8.844;2023-12-04T07:18:54;99856.59;;;-2.58;91.34
72570;BME280;60594;50.204;8.844;2023-12-04T07:21:21;99853.94;;;-2.57;91.93
72570;BME280;60594;50.204;8.844;2023-12-04T07:23:48;99855.53;;;-2.53;91.08
72570;BME280;60594;50.204;8.844;2023-12-04T07:26:14;99860.94;;;-2.57;90.45
72570;BME280;60594;50.204;8.844;2023-12-04T07:28:41;99869.59;;;-2.57;89.79
72570;BME280;60594;50.204;8.844;2023-12-04T07:31:07;99869.41;;;-2.77;90.15
72570;BME280;60594;50.204;8.844;2023-12-04T07:33:34;99853.38;;;-2.66;89.58
72570;BME280;60594;50.204;8.844;2023-12-04T07:36:00;99851.22;;;-2.54;89.84
72570;BME280;60594;50.204;8.844;2023-12-04T07:38:27;99831.09;;;-2.49;89.32
72570;BME280;60594;50.204;8.844;2023-12-04T07:40:54;99832.56;;;-2.42;88.40
72570;BME280;60594;50.204;8.844;2023-12-04T07:43:20;99815.16;;;-2.41;89.10
72570;BME280;60594;50.204;8.844;2023-12-04T07:45:47;99804.78;;;-2.43;88.62
72570;BME280;60594;50.204;8.844;2023-12-04T07:48:13;99798.78;;;-2.45;88.41
72570;BME280;60594;50.204;8.844;2023-12-04T07:50:39;99798.72;;;-2.43;88.54
72570;BME280;60594;50.204;8.844;2023-12-04T07:53:06;99783.00;;;-2.42;87.12
72570;BME280;60594;50.204;8.844;2023-12-04T07:55:35;99791.88;;;-2.47;86.74
72570;BME280;60594;50.204;8.844;2023-12-04T07:58:02;99777.00;;;-2.44;87.05
72570;BME280;60594;50.204;8.844;2023-12-04T08:00:29;99791.59;;;-2.38;86.29
72570;BME280;60594;50.204;8.844;2023-12-04T08:02:55;99793.88;;;-2.29;86.64
72570;BME280;60594;50.204;8.844;2023-12-04T08:05:22;99817.81;;;-2.18;85.69
72570;BME280;60594;50.204;8.844;2023-12-04T08:07:49;99814.97;;;-2.11;85.21
72570;BME280;60594;50.204;8.844;2023-12-04T08:10:15;99812.28;;;-2.09;85.33
72570;BME280;60594;50.204;8.844;2023-12-04T08:12:44;99806.25;;;-2.11;87.46
72570;BME280;60594;50.204;8.844;2023-12-04T08:15:11;99802.53;;;-2.04;86.07
72570;BME280;60594;50.204;8.844;2023-12-04T08:17:38;99811.75;;;-1.94;85.86
72570;BME280;60594;50.204;8.844;2023-12-04T08:20:04;99810.50;;;-1.84;85.82
72570;BME280;60594;50.204;8.844;2023-12-04T08:22:32;99808.53;;;-1.78;85.16
72570;BME280;60594;50.204;8.844;2023-12-04T08:24:58;99806.53;;;-1.71;84.24
72570;BME280;60594;50.204;8.844;2023-12-04T08:27:25;99802.66;;;-1.61;83.40
72570;BME280;60594;50.204;8.844;2023-12-04T08:29:51;99799.13;;;-1.60;82.83
72570;BME280;60594;50.204;8.844;2023-12-04T08:32:18;99802.88;;;-1.67;82.72
72570;BME280;60594;50.204;8.844;2023-12-04T08:34:44;99804.91;;;-1.52;81.39
72570;BME280;60594;50.204;8.844;2023-12-04T08:37:10;99786.75;;;-1.55;82.55
72570;BME280;60594;50.204;8.844;2023-12-04T08:39:37;99786.47;;;-1.48;82.89
72570;BME280;60594;50.204;8.844;2023-12-04T08:42:04;99769.81;;;-1.45;81.94
72570;BME280;60594;50.204;8.844;2023-12-04T08:44:31;99770.31;;;-1.36;82.02
72570;BME280;60594;50.204;8.844;2023-12-04T08:46:57;99768.50;;;-1.34;82.16
72570;BME280;60594;50.204;8.844;2023-12-04T08:49:24;99744.84;;;-1.52;80.94
72570;BME280;60594;50.204;8.844;2023-12-04T08:51:51;99767.53;;;-1.31;82.40
72570;BME280;60594;50.204;8.844;2023-12-04T08:54:18;99757.63;;;-1.23;81.78
72570;BME280;60594;50.204;8.844;2023-12-04T08:56:45;99740.91;;;-1.19;81.39
72570;BME280;60594;50.204;8.844;2023-12-04T08:59:11;99746.81;;;-1.14;81.39
72570;BME280;60594;50.204;8.844;2023-12-04T09:01:39;99736.94;;;-1.08;80.86
72570;BME280;60594;50.204;8.844;2023-12-04T09:04:07;99732.53;;;-1.07;81.97
72570;BME280;60594;50.204;8.844;2023-12-04T09:06:34;99742.59;;;-0.97;82.06
72570;BME280;60594;50.204;8.844;2023-12-04T09:09:00;99729.44;;;-0.95;81.14
72570;BME280;60594;50.204;8.844;2023-12-04T09:11:27;99737.31;;;-0.95;80.79
72570;BME280;60594;50.204;8.844;2023-12-04T09:13:54;99738.75;;;-0.88;79.50
72570;BME280;60594;50.204;8.844;2023-12-04T09:16:20;99750.16;;;-0.91;79.76
72570;BME280;60594;50.204;8.844;2023-12-04T09:18:47;99755.06;;;-1.03;80.34
72570;BME280;60594;50.204;8.844;2023-12-04T09:21:13;99746.94;;;-0.97;79.93
72570;BME280;60594;50.204;8.844;2023-12-04T09:23:40;99744.75;;;-0.86;79.67
72570;BME280;60594;50.204;8.844;2023-12-04T09:26:07;99742.41;;;-0.92;78.80
72570;BME280;60594;50.204;8.844;2023-12-04T09:28:33;99736.53;;;-0.77;79.19
72570;BME280;60594;50.204;8.844;2023-12-04T09:31:01;99731.44;;;-0.80;77.62
72570;BME280;60594;50.204;8.844;2023-12-04T09:33:28;99721.31;;;-0.68;77.55
72570;BME280;60594;50.204;8.844;2023-12-04T09:35:54;99716.72;;;-0.63;77.54
72570;BME280;60594;50.204;8.844;2023-12-04T09:38:21;99732.16;;;-0.57;77.64
72570;BME280;60594;50.204;8.844;2023-12-04T09:40:49;99738.09;;;-0.53;78.04
72570;BME280;60594;50.204;8.844;2023-12-04T09:43:18;99731.75;;;-0.48;79.23
72570;BME280;60594;50.204;8.844;2023-12-04T09:45:45;99731.09;;;-0.53;75.85
72570;BME280;60594;50.204;8.844;2023-12-04T09:48:11;99733.69;;;-0.73;75.72
72570;BME280;60594;50.204;8.844;2023-12-04T09:50:38;99728.00;;;-0.82;77.42
72570;BME280;60594;50.204;8.844;2023-12-04T09:53:06;99726.38;;;-0.65;77.54
72570;BME280;60594;50.204;8.844;2023-12-04T09:55:36;99715.59;;;-0.57;76.28
72570;BME280;60594;50.204;8.844;2023-12-04T09:58:03;99714.16;;;-0.64;75.12
72570;BME280;60594;50.204;8.844;2023-12-04T10:00:31;99706.00;;;-0.57;77.22
72570;BME280;60594;50.204;8.844;2023-12-04T10:02:58;99713.25;;;-0.43;75.15
72570;BME280;60594;50.204;8.844;2023-12-04T10:05:26;99702.13;;;-0.68;77.41
72570;BME280;60594;50.204;8.844;2023-12-04T10:07:52;99705.44;;;-0.65;78.62
72570;BME280;60594;50.204;8.844;2023-12-04T10:10:19;99703.16;;;-0.52;79.07
72570;BME280;60594;50.204;8.844;2023-12-04T10:12:45;99713.97;;;-0.60;75.41
72570;BME280;60594;50.204;8.844;2023-12-04T10:15:12;99709.91;;;-0.67;76.30
72570;BME280;60594;50.204;8.844;2023-12-04T10:17:40;99705.59;;;-0.68;75.65
72570;BME280;60594;50.204;8.844;2023-12-04T10:20:11;99707.53;;;-0.73;75.44
72570;BME280;60594;50.204;8.844;2023-12-04T10:22:59;99711.03;;;-0.72;75.42
72570;BME280;60594;50.204;8.844;2023-12-04T10:25:28;99699.13;;;-0.79;75.45
72570;BME280;60594;50.204;8.844;2023-12-04T10:28:12;99699.53;;;-0.88;75.15
72570;BME280;60594;50.204;8.844;2023-12-04T10:30:39;99684.75;;;-0.69;75.07
72570;BME280;60594;50.204;8.844;2023-12-04T10:33:06;99685.91;;;-0.56;75.98
72570;BME280;60594;50.204;8.844;2023-12-04T10:35:37;99684.28;;;-0.59;76.21
72570;BME280;60594;50.204;8.844;2023-12-04T10:38:05;99686.50;;;-0.50;75.25
72570;BME280;60594;50.204;8.844;2023-12-04T10:40:33;99686.44;;;-0.68;75.59
72570;BME280;60594;50.204;8.844;2023-12-04T10:45:40;99676.47;;;-0.60;74.44
72570;BME280;60594;50.204;8.844;2023-12-04T10:48:08;99677.28;;;-0.78;74.96
72570;BME280;60594;50.204;8.844;2023-12-04T10:50:40;99677.34;;;-0.80;75.22
72570;BME280;60594;50.204;8.844;2023-12-04T10:53:08;99672.13;;;-1.00;76.22
72570;BME280;60594;50.204;8.844;2023-12-04T10:55:35;99661.19;;;-1.09;78.38
72570;BME280;60594;50.204;8.844;2023-12-04T10:58:10;99661.25;;;-1.11;77.24
72570;BME280;60594;50.204;8.844;2023-12-04T11:00:41;99653.63;;;-0.95;78.63
72570;BME280;60594;50.204;8.844;2023-12-04T11:03:10;99658.91;;;-0.77;78.50
72570;BME280;60594;50.204;8.844;2023-12-04T11:05:40;99659.94;;;-0.81;78.26
72570;BME280;60594;50.204;8.844;2023-12-04T11:08:11;99660.34;;;-0.70;77.84
72570;BME280;60594;50.204;8.844;2023-12-04T11:10:45;99651.63;;;-0.70;77.91
72570;BME280;60594;50.204;8.844;2023-12-04T11:13:21;99638.97;;;-0.79;76.58
72570;BME280;60594;50.204;8.844;2023-12-04T11:15:49;99634.50;;;-0.57;78.11
72570;BME280;60594;50.204;8.844;2023-12-04T11:18:21;99625.53;;;-0.52;76.03
72570;BME280;60594;50.204;8.844;2023-12-04T11:20:56;99634.94;;;-0.48;75.74
72570;BME280;60594;50.204;8.844;2023-12-04T11:23:25;99639.59;;;-0.74;76.68
72570;BME280;60594;50.204;8.844;2023-12-04T11:25:53;99625.03;;;-0.80;77.67
72570;BME280;60594;50.204;8.844;2023-12-04T11:28:19;99632.66;;;-0.94;77.20
72570;BME280;60594;50.204;8.844;2023-12-04T11:30:47;99627.22;;;-1.09;77.65
72570;BME280;60594;50.204;8.844;2023-12-04T11:33:13;99616.09;;;-0.94;79.59
72570;BME280;60594;50.204;8.844;2023-12-04T11:35:40;99615.22;;;-0.75;78.51
72570;BME280;60594;50.204;8.844;2023-12-04T11:38:06;99608.38;;;-0.77;77.32
72570;BME280;60594;50.204;8.844;2023-12-04T11:40:36;99618.66;;;-0.54;77.63
72570;BME280;60594;50.204;8.844;2023-12-04T11:43:26;99619.59;;;-0.55;77.09
72570;BME280;60594;50.204;8.844;2023-12-04T11:46:07;99615.50;;;-0.42;77.10
72570;BME280;60594;50.204;8.844;2023-12-04T11:48:33;99604.72;;;-0.55;75.96
72570;BME280;60594;50.204;8.844;2023-12-04T11:51:00;99610.03;;;-0.56;76.70
72570;BME280;60594;50.204;8.844;2023-12-04T11:53:27;99603.34;;;-0.43;77.03
72570;BME280;60594;50.204;8.844;2023-12-04T11:55:55;99587.53;;;-0.23;75.46
72570;BME280;60594;50.204;8.844;2023-12-04T11:58:23;99593.63;;;-0.23;75.70
72570;BME280;60594;50.204;8.844;2023-12-04T12:00:50;99571.91;;;-0.25;75.70
72570;BME280;60594;50.204;8.844;2023-12-04T12:03:20;99581.31;;;-0.21;74.42
72570;BME280;60594;50.204;8.844;2023-12-04T12:05:48;99564.47;;;-0.15;74.18
72570;BME280;60594;50.204;8.844;2023-12-04T12:08:15;99561.22;;;-0.02;74.46
72570;BME280;60594;50.204;8.844;2023-12-04T12:10:41;99530.28;;;-0.12;75.05
72570;BME280;60594;50.204;8.844;2023-12-04T12:13:10;99539.28;;;0.01;75.68
72570;BME280;60594;50.204;8.844;2023-12-04T12:15:36;99526.94;;;0.03;73.99
72570;BME280;60594;50.204;8.844;2023-12-04T12:18:05;99515.78;;;-0.01;74.11
72570;BME280;60594;50.204;8.844;2023-12-04T12:20:32;99515.91;;;-0.04;74.28
72570;BME280;60594;50.204;8.844;2023-12-04T12:22:59;99506.44;;;-0.06;73.93
72570;BME280;60594;50.204;8.844;2023-12-04T12:25:25;99504.03;;;-0.11;75.02
72570;BME280;60594;50.204;8.844;2023-12-04T12:27:52;99491.34;;;-0.18;75.46
72570;BME280;60594;50.204;8.844;2023-12-04T12:30:19;99479.88;;;-0.16;75.80
72570;BME280;60594;50.204;8.844;2023-12-04T12:32:45;99476.06;;;-0.27;78.53
72570;BME280;60594;50.204;8.844;2023-12-04T12:35:12;99480.47;;;-0.28;80.49
72570;BME280;60594;50.204;8.844;2023-12-04T12:37:39;99476.72;;;-0.41;81.51
72570;BME280;60594;50.204;8.844;2023-12-04T12:40:06;99474.56;;;-0.50;84.34
72570;BME280;60594;50.204;8.844;2023-12-04T12:42:35;99463.22;;;-0.50;84.61
72570;BME280;60594;50.204;8.844;2023-12-04T12:45:03;99465.66;;;-0.64;86.74
72570;BME280;60594;50.204;8.844;2023-12-04T12:47:30;99443.56;;;-0.59;88.17
72570;BME280;60594;50.204;8.844;2023-12-04T12:49:57;99467.97;;;-0.58;88.49
72570;BME280;60594;50.204;8.844;2023-12-04T12:52:25;99465.72;;;-0.66;90.23
72570;BME280;60594;50.204;8.844;2023-12-04T12:54:52;99465.81;;;-0.86;92.41
72570;BME280;60594;50.204;8.844;2023-12-04T12:57:18;99458.09;;;-0.89;94.07
72570;BME280;60594;50.204;8.844;2023-12-04T12:59:45;99459.56;;;-1.02;94.03